Time;durP1;ratioP1;P1;durP2;ratioP2;P2;SDS_P1;SDS_P2;PMS_P1;PMS_P2;Temp;Humidity;BMP_temperature;BMP_pressure;BME280_temperature;BME280_humidity;BME280_pressure;Samples;Min_cycle;Max_cycle;Signal;HPM_P1;HPM_P2
2022/11/01 00:00:05;;;;;;;6.80;3.58;;;20.30;92.60;;;;;;10470796;28;20490;-27
2022/11/01 00:05:08;;;;;;;6.47;3.03;;;20.30;92.80;;;;;;10451418;28;20126;-24
2022/11/01 00:10:11;;;;;;;5.35;3.55;;;20.40;92.10;;;;;;10444792;28;20126;-24
2022/11/01 00:15:13;;;;;;;10.20;3.67;;;20.40;92.60;;;;;;10434214;28;20550;-26
2022/11/01 00:20:16;;;;;;;7.63;2.70;;;20.20;92.60;;;;;;10435558;28;20135;-28
2022/11/01 00:25:19;;;;;;;6.00;3.45;;;20.30;92.60;;;;;;10451223;28;20045;-25
2022/11/01 00:30:21;;;;;;;6.22;3.45;;;20.40;92.50;;;;;;10437221;28;20444;-27
2022/11/01 00:35:24;;;;;;;6.32;2.95;;;20.40;92.50;;;;;;10447540;28;20045;-26
2022/11/01 00:40:28;;;;;;;8.85;3.25;;;20.30;92.80;;;;;;10438035;28;20056;-27
2022/11/01 00:45:29;;;;;;;5.57;2.83;;;20.20;93.10;;;;;;10445474;28;20069;-27
2022/11/01 00:50:31;;;;;;;6.25;2.80;;;20.30;92.80;;;;;;10447177;28;20077;-27
2022/11/01 00:55:35;;;;;;;8.90;3.20;;;20.40;92.70;;;;;;10441217;28;20057;-29
2022/11/01 01:00:37;;;;;;;7.05;2.78;;;20.30;93.10;;;;;;10448396;28;20053;-29
2022/11/01 01:05:39;;;;;;;5.15;2.85;;;20.00;93.80;;;;;;10440438;28;20149;-25
2022/11/01 01:10:42;;;;;;;6.57;3.08;;;20.10;93.50;;;;;;10452156;28;20136;-26
2022/11/01 01:15:45;;;;;;;5.95;2.38;;;19.90;94.20;;;;;;10448213;28;20470;-27
2022/11/01 01:20:46;;;;;;;5.82;2.30;;;20.00;94.00;;;;;;10448057;28;20150;-27
2022/11/01 01:25:49;;;;;;;5.85;2.40;;;20.20;93.30;;;;;;10454323;28;20072;-25
2022/11/01 01:30:51;;;;;;;6.03;2.50;;;19.90;94.30;;;;;;10451660;28;20139;-32
2022/11/01 01:35:53;;;;;;;6.63;2.90;;;20.10;93.70;;;;;;10447646;28;20045;-26
2022/11/01 01:41:54;;;;;;;9.30;3.30;;;20.10;94.20;;;;;;10440234;28;20053;-28
2022/11/01 01:46:19;;;;;;;6.38;3.28;;;19.70;95.20;;;;;;10441733;28;20060;-29
2022/11/01 01:51:24;;;;;;;5.18;2.92;;;20.10;94.00;;;;;;10442086;28;20502;-29
2022/11/01 01:56:33;;;;;;;9.07;3.35;;;19.50;95.70;;;;;;10442961;28;20055;-27
2022/11/01 02:01:39;;;;;;;10.23;3.33;;;19.00;97.50;;;;;;10436846;28;20056;-27
2022/11/01 02:06:41;;;;;;;8.20;3.15;;;18.70;98.00;;;;;;10435286;28;20758;-26
2022/11/01 02:11:45;;;;;;;6.97;3.70;;;18.10;99.90;;;;;;10432102;28;20461;-31
2022/11/01 02:16:53;;;;;;;4.15;2.40;;;17.80;99.90;;;;;;10431026;28;20033;-28
2022/11/01 02:22:06;;;;;;;8.18;2.83;;;17.70;99.90;;;;;;10447296;28;20563;-29
2022/11/01 02:27:13;;;;;;;12.27;2.30;;;17.50;99.90;;;;;;10435747;28;20068;-28
2022/11/01 02:32:22;;;;;;;3.13;1.05;;;17.20;99.90;;;;;;10436587;28;20049;-29
2022/11/01 02:37:28;;;;;;;4.18;1.35;;;16.90;99.90;;;;;;10445909;28;20061;-27
2022/11/01 02:42:35;;;;;;;3.38;1.02;;;17.10;99.10;;;;;;10441003;28;20080;-29
2022/11/01 02:47:40;;;;;;;2.88;1.27;;;16.60;98.60;;;;;;10446321;28;20126;-29
2022/11/01 02:52:42;;;;;;;2.20;1.00;;;16.70;99.80;;;;;;10447389;28;20049;-30
2022/11/01 02:57:44;;;;;;;6.95;0.85;;;16.90;98.50;;;;;;10440724;28;20446;-32
2022/11/01 03:02:51;;;;;;;6.85;0.88;;;16.30;99.30;;;;;;10443631;28;20529;-26
2022/11/01 03:08:00;;;;;;;4.95;1.00;;;16.30;97.70;;;;;;10448347;28;20061;-27
2022/11/01 03:13:13;;;;;;;11.73;1.70;;;16.30;95.80;;;;;;10444606;28;20130;-24
2022/11/01 03:18:21;;;;;;;9.10;2.10;;;15.80;96.70;;;;;;10439851;28;20485;-27
2022/11/01 03:23:29;;;;;;;5.78;1.08;;;16.50;97.70;;;;;;10443884;28;20128;-26
2022/11/01 03:28:39;;;;;;;4.78;1.20;;;17.20;99.70;;;;;;10447802;28;20641;-28
2022/11/01 03:33:47;;;;;;;9.70;1.10;;;16.50;98.40;;;;;;10449110;28;20041;-28
2022/11/01 03:38:53;;;;;;;20.50;1.65;;;16.20;98.50;;;;;;10457318;28;20510;-27
2022/11/01 03:43:56;;;;;;;15.70;1.38;;;16.30;99.90;;;;;;10453009;28;20083;-28
2022/11/01 03:48:59;;;;;;;17.77;2.40;;;16.50;95.40;;;;;;10457606;28;20045;-24
2022/11/01 03:54:01;;;;;;;8.70;1.17;;;15.50;96.40;;;;;;10455490;28;20115;-27
2022/11/01 03:59:03;;;;;;;11.73;1.77;;;15.60;96.60;;;;;;10453599;28;20091;-36
2022/11/01 04:04:06;;;;;;;8.70;0.98;;;15.90;99.20;;;;;;10466215;28;20049;-26
2022/11/01 04:09:09;;;;;;;8.95;2.42;;;16.50;99.90;;;;;;10457805;28;20084;-26
2022/11/01 04:24:51;;;;;;;13.48;1.77;;;15.20;99.40;;;;;;10454267;28;20148;-27
2022/11/01 04:29:53;;;;;;;8.73;1.00;;;15.90;99.20;;;;;;10453072;28;20447;-27
2022/11/01 04:34:56;;;;;;;8.77;1.70;;;16.00;98.10;;;;;;10446070;28;20041;-27
2022/11/01 04:39:58;;;;;;;12.25;1.83;;;15.50;97.60;;;;;;10449456;28;20442;-26
2022/11/01 04:44:59;;;;;;;7.73;1.27;;;15.70;97.00;;;;;;10450094;28;20524;-26
2022/11/01 04:50:03;;;;;;;7.90;1.30;;;16.20;96.70;;;;;;10442681;28;20543;-27
2022/11/01 04:55:06;;;;;;;19.65;1.85;;;15.60;99.40;;;;;;10446959;28;20461;-28
2022/11/01 05:00:10;;;;;;;10.27;1.77;;;15.40;95.80;;;;;;10447826;28;20135;-31
2022/11/01 05:05:13;;;;;;;13.07;1.80;;;16.00;98.00;;;;;;10448596;28;20048;-31
2022/11/01 05:10:15;;;;;;;10.63;1.73;;;16.10;96.50;;;;;;10436596;28;20107;-27
2022/11/01 05:15:17;;;;;;;10.10;1.20;;;16.00;99.90;;;;;;10454965;28;20045;-28
2022/11/01 05:20:21;;;;;;;14.33;1.37;;;16.90;91.50;;;;;;10458071;28;20062;-29
2022/11/01 05:25:22;;;;;;;4.80;1.05;;;16.40;98.90;;;;;;10440643;28;20076;-29
2022/11/01 05:30:24;;;;;;;9.67;1.63;;;16.30;96.90;;;;;;10433530;28;20053;-28
2022/11/01 05:35:29;;;;;;;5.90;1.73;;;16.20;96.00;;;;;;10433591;28;20049;-27
2022/11/01 05:40:31;;;;;;;10.95;1.50;;;16.40;91.10;;;;;;10428211;28;20056;-29
2022/11/01 05:45:33;;;;;;;24.25;2.28;;;16.60;97.10;;;;;;10427014;28;20038;-31
2022/11/01 05:50:36;;;;;;;15.13;2.10;;;14.90;93.30;;;;;;10431516;28;20084;-30
2022/11/01 05:55:38;;;;;;;15.57;2.30;;;15.10;92.70;;;;;;10436552;28;20045;-28
2022/11/01 06:00:40;;;;;;;7.85;1.65;;;15.70;98.10;;;;;;10447152;28;20041;-29
2022/11/01 06:05:43;;;;;;;16.23;3.23;;;16.10;98.20;;;;;;10440902;28;20069;-27
2022/11/01 06:10:45;;;;;;;15.23;2.40;;;16.30;89.10;;;;;;10450932;28;20143;-30
2022/11/01 06:15:47;;;;;;;18.13;3.03;;;15.20;93.80;;;;;;10445902;28;20041;-31
2022/11/01 06:20:51;;;;;;;25.03;2.97;;;14.80;98.70;;;;;;10440865;28;20045;-29
2022/11/01 06:26:00;;;;;;;11.30;2.22;;;15.10;97.40;;;;;;10449130;28;20127;-27
2022/11/01 06:31:03;;;;;;;15.57;2.95;;;15.90;94.60;;;;;;10438667;28;20045;-28
2022/11/01 06:36:07;;;;;;;21.73;2.60;;;15.70;88.90;;;;;;10440192;28;20080;-27
2022/11/01 06:41:08;;;;;;;26.05;4.30;;;14.70;95.20;;;;;;10439437;28;20560;-32
2022/11/01 06:46:10;;;;;;;16.98;2.30;;;14.90;95.90;;;;;;10450600;28;20141;-28
2022/11/01 06:51:14;;;;;;;12.20;2.10;;;15.00;97.00;;;;;;10436048;28;20449;-27
2022/11/01 06:56:15;;;;;;;11.32;2.40;;;14.90;92.90;;;;;;10436522;28;20051;-27
2022/11/01 07:01:20;;;;;;;13.73;1.98;;;15.20;99.20;;;;;;10444203;28;20154;-31
2022/11/01 07:06:27;;;;;;;13.93;2.55;;;15.20;98.80;;;;;;10459466;28;20439;-27
2022/11/01 07:11:29;;;;;;;12.93;2.50;;;14.90;99.50;;;;;;10445892;28;20145;-26
2022/11/01 07:16:31;;;;;;;4.03;1.07;;;14.30;94.90;;;;;;10452557;28;20550;-27
2022/11/01 07:21:34;;;;;;;17.55;2.67;;;15.40;99.80;;;;;;10450972;28;20049;-28
2022/11/01 07:26:36;;;;;;;26.15;2.58;;;14.40;95.00;;;;;;10459213;28;20578;-29
2022/11/01 07:31:38;;;;;;;12.10;1.58;;;15.00;94.90;;;;;;10439485;28;20128;-26
2022/11/01 07:36:41;;;;;;;14.23;1.80;;;15.30;94.70;;;;;;10459996;28;20053;-28
2022/11/01 07:41:43;;;;;;;18.25;3.28;;;15.70;97.20;;;;;;10456804;28;20065;-29
2022/11/01 07:46:45;;;;;;;8.80;1.23;;;14.50;98.30;;;;;;10453572;28;20040;-27
2022/11/01 07:51:48;;;;;;;16.40;2.30;;;15.70;98.20;;;;;;10446227;28;20053;-28
2022/11/01 07:56:50;;;;;;;16.80;2.72;;;15.20;97.20;;;;;;10447232;28;20048;-27
2022/11/01 08:01:52;;;;;;;17.70;2.13;;;15.60;95.00;;;;;;10446423;28;20449;-28
2022/11/01 08:06:55;;;;;;;8.57;1.37;;;15.90;95.00;;;;;;10435240;28;20140;-29
2022/11/01 08:11:58;;;;;;;14.38;1.88;;;15.90;96.80;;;;;;10440477;28;20489;-28
2022/11/01 08:17:00;;;;;;;5.97;1.45;;;15.40;98.20;;;;;;10446316;28;20473;-28
2022/11/01 08:22:04;;;;;;;15.77;2.05;;;16.70;95.50;;;;;;10447022;28;20060;-31
2022/11/01 08:27:06;;;;;;;13.50;2.20;;;15.50;92.00;;;;;;10440551;28;20489;-28
2022/11/01 08:32:08;;;;;;;15.60;2.50;;;16.60;95.30;;;;;;10454345;28;20044;-27
2022/11/01 08:37:11;;;;;;;17.73;2.13;;;15.20;97.40;;;;;;10446369;28;20053;-32
2022/11/01 08:42:13;;;;;;;12.65;1.90;;;15.40;93.90;;;;;;10446486;28;20052;-29
2022/11/01 08:47:15;;;;;;;9.20;1.80;;;14.50;96.60;;;;;;10437628;28;20123;-28
2022/11/01 08:52:18;;;;;;;13.23;1.77;;;14.30;99.20;;;;;;10433930;28;20071;-28
2022/11/01 08:57:20;;;;;;;12.70;2.85;;;14.80;96.00;;;;;;10454295;28;20162;-27
2022/11/01 09:02:22;;;;;;;17.47;2.23;;;15.70;98.90;;;;;;10459591;28;20053;-28
2022/11/01 09:07:25;;;;;;;14.27;2.50;;;14.60;96.10;;;;;;10460210;28;20085;-26
2022/11/01 09:12:27;;;;;;;16.65;2.03;;;14.90;97.00;;;;;;10445953;28;20100;-27
2022/11/01 09:17:29;;;;;;;10.43;1.53;;;15.30;94.10;;;;;;10444844;28;20053;-28
2022/11/01 09:22:32;;;;;;;20.73;3.63;;;15.00;95.10;;;;;;10453025;28;20041;-26
2022/11/01 09:27:34;;;;;;;15.48;2.75;;;15.70;94.50;;;;;;10466128;28;20040;-26
2022/11/01 09:32:36;;;;;;;13.87;2.10;;;15.40;98.90;;;;;;10442353;28;20048;-26
2022/11/01 09:37:41;;;;;;;15.53;1.93;;;14.90;95.10;;;;;;10452437;28;21611;-25
2022/11/01 09:42:44;;;;;;;17.33;2.03;;;15.40;96.10;;;;;;10439260;28;20507;-27
2022/11/01 09:47:49;;;;;;;15.27;1.75;;;15.10;96.90;;;;;;10444497;28;20060;-28
2022/11/01 09:52:55;;;;;;;13.57;2.25;;;15.70;95.00;;;;;;10440070;28;20052;-28
2022/11/01 09:58:01;;;;;;;16.70;2.20;;;15.30;97.20;;;;;;10443341;28;20076;-26
2022/11/01 10:03:32;;;;;;;20.58;2.30;;;15.50;96.20;;;;;;10444977;28;20135;-30
2022/11/01 10:08:48;;;;;;;7.32;1.63;;;15.40;96.80;;;;;;10427870;28;20064;-32
2022/11/01 10:13:57;;;;;;;17.25;2.40;;;15.90;95.80;;;;;;10445145;28;20056;-29
2022/11/01 10:19:03;;;;;;;17.33;3.15;;;16.40;93.10;;;;;;10429390;28;20460;-28
2022/11/01 10:24:14;;;;;;;14.95;2.58;;;16.30;92.20;;;;;;10449566;28;20045;-26
2022/11/01 10:29:22;;;;;;;8.25;1.30;;;15.80;93.70;;;;;;10443975;28;20438;-27
2022/11/01 10:34:27;;;;;;;10.77;2.42;;;16.50;93.80;;;;;;10439141;28;20081;-27
2022/11/01 10:39:40;;;;;;;9.35;1.60;;;16.10;97.10;;;;;;10445610;28;20140;-27
2022/11/01 10:44:45;;;;;;;9.40;1.77;;;16.40;95.00;;;;;;10447410;28;20073;-26
2022/11/01 10:49:50;;;;;;;13.45;1.63;;;16.40;94.50;;;;;;10447065;28;20481;-25
2022/11/01 10:54:57;;;;;;;11.48;1.58;;;16.00;96.90;;;;;;10463243;28;20099;-28
2022/11/01 11:00:04;;;;;;;10.57;1.83;;;17.10;90.00;;;;;;10446868;28;20053;-31
2022/11/01 11:05:06;;;;;;;11.60;1.90;;;16.70;91.40;;;;;;10461674;28;20167;-26
2022/11/01 11:10:18;;;;;;;14.05;1.85;;;16.80;94.30;;;;;;10460421;28;20049;-26
2022/11/01 11:15:32;;;;;;;5.85;1.35;;;17.10;92.20;;;;;;10455214;28;20076;-28
2022/11/01 11:20:36;;;;;;;7.10;1.15;;;17.10;91.90;;;;;;10447751;28;20496;-30
2022/11/01 11:25:41;;;;;;;17.05;0.95;;;17.20;92.80;;;;;;10454607;28;20117;-28
2022/11/01 11:30:42;;;;;;;8.85;1.70;;;17.30;92.00;;;;;;10456441;28;20038;-25
2022/11/01 11:35:53;;;;;;;7.20;1.43;;;17.70;90.90;;;;;;10463211;28;20049;-29
2022/11/01 11:40:56;;;;;;;8.43;1.40;;;17.70;92.60;;;;;;10462943;28;20164;-27
2022/11/01 11:46:04;;;;;;;7.15;1.50;;;16.90;91.50;;;;;;10445885;28;20576;-27
2022/11/01 11:51:07;;;;;;;6.65;1.38;;;16.90;92.60;;;;;;10436451;28;20540;-29
2022/11/01 11:56:12;;;;;;;9.27;1.65;;;17.60;88.60;;;;;;10454438;28;20072;-27
2022/11/01 12:01:24;;;;;;;10.60;1.25;;;17.70;86.20;;;;;;10458570;28;20060;-27
2022/11/01 12:06:27;;;;;;;;;;;17.10;91.70;;;;;;10444634;28;20045;-28
2022/11/01 12:11:40;;;;;;;4.97;0.90;;;17.00;87.80;;;;;;10461016;28;20418;-30
2022/11/01 12:16:42;;;;;;;11.35;1.58;;;17.40;86.40;;;;;;10448218;28;20064;-28
2022/11/01 12:21:44;;;;;;;10.93;1.60;;;17.20;86.20;;;;;;10450414;28;20048;-27
2022/11/01 12:26:49;;;;;;;8.88;1.38;;;17.60;91.70;;;;;;10459030;28;20118;-24
2022/11/01 12:31:53;;;;;;;9.13;1.63;;;18.10;89.90;;;;;;10443485;28;20040;-29
2022/11/01 12:37:00;;;;;;;4.47;0.90;;;17.70;90.70;;;;;;10443964;28;20044;-27
2022/11/01 12:42:04;;;;;;;10.52;1.40;;;18.10;82.10;;;;;;10451020;28;20079;-26
2022/11/01 12:47:14;;;;;;;4.10;0.90;;;18.70;85.60;;;;;;10445225;28;20049;-24
2022/11/01 12:52:23;;;;;;;8.18;1.98;;;19.60;82.80;;;;;;10437295;28;20049;-30
2022/11/01 12:57:28;;;;;;;5.53;1.38;;;19.00;80.60;;;;;;10454870;28;20064;-25
2022/11/01 13:02:46;;;;;;;5.57;1.65;;;19.30;82.80;;;;;;10451732;28;20058;-27
2022/11/01 13:08:00;;;;;;;15.93;1.48;;;18.70;88.40;;;;;;10444598;28;20155;-28
2022/11/01 13:13:14;;;;;;;5.97;1.42;;;18.70;88.30;;;;;;10435960;28;20073;-28
2022/11/01 13:18:22;;;;;;;7.57;1.50;;;19.00;84.00;;;;;;10424614;28;20042;-26
2022/11/01 13:23:30;;;;;;;11.93;1.20;;;19.30;86.90;;;;;;10436676;28;20048;-28
2022/11/01 13:28:48;;;;;;;8.38;1.27;;;18.40;81.50;;;;;;10447180;28;20045;-28
2022/11/01 13:33:58;;;;;;;7.72;1.25;;;18.50;79.40;;;;;;10446963;28;20090;-29
2022/11/01 13:39:06;;;;;;;14.63;1.35;;;19.20;88.30;;;;;;10440943;28;20104;-26
2022/11/01 13:44:15;;;;;;;3.88;0.75;;;18.30;87.30;;;;;;10448937;28;20045;-26
2022/11/01 13:50:08;;;;;;;9.18;1.55;;;18.50;91.50;;;;;;10448468;28;20048;-27
2022/11/01 13:55:21;;;;;;;11.63;1.52;;;18.10;80.20;;;;;;10434828;28;20072;-25
2022/11/01 14:00:43;;;;;;;3.58;0.70;;;18.10;85.40;;;;;;10432230;28;20063;-27
2022/11/01 14:05:47;;;;;;;4.70;1.07;;;19.10;90.00;;;;;;10432742;28;20041;-27
2022/11/01 14:10:50;;;;;;;6.30;1.23;;;18.40;92.10;;;;;;10438613;28;20313;-27
2022/11/01 14:16:21;;;;;;;6.28;1.10;;;18.10;82.40;;;;;;10432110;28;20503;-28
2022/11/01 14:21:30;;;;;;;7.40;1.23;;;19.10;85.30;;;;;;10423349;28;20088;-25
2022/11/01 14:26:38;;;;;;;4.78;0.95;;;19.20;83.60;;;;;;10436478;28;20445;-27
2022/11/01 14:31:44;;;;;;;3.42;0.77;;;19.20;80.20;;;;;;10445167;28;20167;-26
2022/11/01 14:36:49;;;;;;;8.07;1.48;;;19.30;87.60;;;;;;10447150;28;20551;-28
2022/11/01 14:41:52;;;;;;;4.88;1.25;;;19.00;79.10;;;;;;10434216;28;20386;-28
2022/11/01 14:46:59;;;;;;;9.20;1.33;;;19.10;90.70;;;;;;10439656;28;20060;-29
2022/11/01 14:52:06;;;;;;;3.83;0.80;;;18.30;87.50;;;;;;10441930;28;20064;-28
2022/11/01 14:57:20;;;;;;;4.25;1.20;;;19.30;90.10;;;;;;10453990;28;20581;-30
2022/11/01 15:02:25;;;;;;;5.07;1.08;;;18.70;91.00;;;;;;10445235;28;20528;-26
2022/11/01 15:07:28;;;;;;;6.35;0.80;;;19.00;90.80;;;;;;10447815;28;20099;-25
2022/11/01 15:12:34;;;;;;;3.50;1.08;;;19.00;84.40;;;;;;10456026;28;20053;-27
2022/11/01 15:17:37;;;;;;;4.35;0.93;;;19.30;90.20;;;;;;10450083;28;20167;-28
2022/11/01 15:22:41;;;;;;;4.30;0.98;;;18.90;90.80;;;;;;10459629;28;20485;-29
2022/11/01 15:27:45;;;;;;;10.88;1.33;;;19.60;89.20;;;;;;10439227;28;20466;-28
2022/11/01 15:32:52;;;;;;;3.33;0.90;;;19.10;90.30;;;;;;10438792;28;20049;-31
2022/11/01 15:37:56;;;;;;;2.92;0.90;;;18.90;91.80;;;;;;10416289;28;20045;-27
2022/11/01 15:42:59;;;;;;;6.68;1.35;;;19.20;90.50;;;;;;10434679;28;20050;-26
2022/11/01 15:48:08;;;;;;;8.18;1.27;;;18.50;91.40;;;;;;10428115;28;20049;-29
2022/11/01 15:53:13;;;;;;;9.30;1.83;;;18.30;87.00;;;;;;10449148;28;20136;-26
2022/11/01 15:58:19;;;;;;;3.45;1.20;;;19.00;90.50;;;;;;10443840;28;20077;-26
2022/11/01 16:03:27;;;;;;;10.55;1.90;;;19.60;88.20;;;;;;10436251;28;20056;-26
2022/11/01 16:08:35;;;;;;;6.10;1.13;;;18.90;92.50;;;;;;10444558;28;20080;-30
2022/11/01 16:13:37;;;;;;;12.02;2.20;;;19.80;90.10;;;;;;10445428;28;20119;-30
2022/11/01 16:18:43;;;;;;;9.50;0.98;;;19.70;87.40;;;;;;10457912;28;20136;-31
2022/11/01 16:23:50;;;;;;;7.15;1.30;;;19.70;81.10;;;;;;10447387;28;20059;-28
2022/11/01 16:28:53;;;;;;;6.03;1.63;;;18.70;91.80;;;;;;10431528;28;20171;-29
2022/11/01 16:33:57;;;;;;;13.40;3.20;;;19.60;88.20;;;;;;10438291;28;20053;-31
2022/11/01 16:38:59;;;;;;;7.93;1.35;;;19.30;83.10;;;;;;10434440;28;20045;-29
2022/11/01 16:44:08;;;;;;;8.88;1.40;;;18.80;91.60;;;;;;10449606;28;20488;-28
2022/11/01 16:49:20;;;;;;;7.20;1.35;;;18.90;85.10;;;;;;10441832;28;20060;-33
2022/11/01 16:54:22;;;;;;;11.25;1.20;;;18.50;92.00;;;;;;10431152;28;20075;-29
2022/11/01 16:59:34;;;;;;;5.25;1.10;;;18.80;90.50;;;;;;10430165;28;20045;-30
2022/11/01 17:04:39;;;;;;;7.38;1.38;;;19.40;91.10;;;;;;10446139;28;20052;-32
2022/11/01 17:09:41;;;;;;;11.57;1.13;;;19.00;89.10;;;;;;10446258;28;20119;-29
2022/11/01 17:14:44;;;;;;;7.10;1.58;;;19.30;90.60;;;;;;10452881;28;20118;-28
2022/11/01 17:19:53;;;;;;;5.30;1.05;;;18.20;87.60;;;;;;10451736;28;20065;-27
2022/11/01 17:24:55;;;;;;;9.15;1.65;;;18.80;90.90;;;;;;10442766;28;20053;-27
2022/11/01 17:29:57;;;;;;;6.20;1.33;;;18.20;93.10;;;;;;10458171;28;20048;-33
2022/11/01 17:35:01;;;;;;;10.47;1.50;;;18.80;92.00;;;;;;10443369;28;20072;-30
2022/11/01 17:40:09;;;;;;;9.88;2.05;;;18.30;93.50;;;;;;10447152;28;20073;-28
2022/11/01 17:45:11;;;;;;;8.00;0.88;;;17.40;91.40;;;;;;10456608;28;20382;-35
2022/11/01 17:50:16;;;;;;;8.63;1.02;;;16.90;93.70;;;;;;10443531;28;20107;-32
2022/11/01 17:55:18;;;;;;;8.60;1.65;;;16.50;93.70;;;;;;10452284;28;20595;-28
2022/11/01 18:00:20;;;;;;;9.90;1.23;;;16.80;94.90;;;;;;10436986;28;20512;-29
2022/11/01 18:05:23;;;;;;;5.45;0.98;;;16.40;95.10;;;;;;10447963;28;20055;-28
2022/11/01 18:10:37;;;;;;;9.43;1.48;;;17.00;94.80;;;;;;10445478;28;20563;-29
2022/11/01 18:15:46;;;;;;;10.32;1.65;;;16.30;92.10;;;;;;10451818;28;20048;-30
2022/11/01 18:20:59;;;;;;;4.68;1.80;;;15.50;96.40;;;;;;10443876;28;20098;-28
2022/11/01 18:26:01;;;;;;;9.98;1.98;;;15.70;95.70;;;;;;10454719;28;20569;-31
2022/11/01 18:31:12;;;;;;;6.37;1.03;;;15.60;98.30;;;;;;10451594;28;20045;-29
2022/11/01 18:36:20;;;;;;;5.63;1.42;;;15.60;95.40;;;;;;10443360;28;20131;-29
2022/11/01 18:41:22;;;;;;;5.13;1.30;;;15.60;99.90;;;;;;10432173;28;20053;-28
2022/11/01 18:46:29;;;;;;;10.20;1.90;;;15.80;96.40;;;;;;10437078;28;20103;-27
2022/11/01 18:51:34;;;;;;;4.05;1.00;;;15.30;99.90;;;;;;10446129;28;20126;-25
2022/11/01 18:56:39;;;;;;;2.90;0.80;;;16.30;94.90;;;;;;10433987;28;20119;-29
2022/11/01 19:01:41;;;;;;;5.63;0.80;;;15.30;96.90;;;;;;10453947;28;20551;-27
2022/11/01 19:06:44;;;;;;;5.70;1.50;;;15.50;98.10;;;;;;10438123;28;20045;-31
2022/11/01 19:11:50;;;;;;;12.48;1.58;;;15.90;99.90;;;;;;10449612;28;20074;-31
2022/11/01 19:16:55;;;;;;;5.93;1.20;;;16.30;99.90;;;;;;10438526;28;20065;-29
2022/11/01 19:22:01;;;;;;;5.55;1.17;;;17.10;98.20;;;;;;10438971;28;20123;-28
2022/11/01 19:27:14;;;;;;;3.85;1.33;;;17.30;96.60;;;;;;10451642;28;20059;-29
2022/11/01 19:32:22;;;;;;;4.63;0.88;;;17.60;96.90;;;;;;10451423;28;20127;-29
2022/11/01 19:37:29;;;;;;;5.68;1.13;;;17.40;96.60;;;;;;10475181;28;20509;-29
2022/11/01 19:42:31;;;;;;;9.90;1.38;;;17.00;95.40;;;;;;10437729;28;20107;-30
2022/11/01 19:49:49;;;;;;;4.60;1.25;;;18.00;94.90;;;;;;10495108;27;20120;-28
2022/11/01 19:54:53;;;;;;;2.78;1.00;;;18.60;94.20;;;;;;10520788;28;20070;-32
2022/11/01 20:00:02;;;;;;;3.60;1.40;;;19.50;91.70;;;;;;10511013;28;20051;-28
2022/11/01 20:05:23;;;;;;;3.40;1.20;;;19.40;90.70;;;;;;10505229;28;20051;-28
2022/11/01 20:10:25;;;;;;;2.45;0.80;;;19.20;92.00;;;;;;10512015;28;20055;-33
2022/11/01 20:15:27;;;;;;;5.65;1.20;;;19.90;89.60;;;;;;10501212;28;20051;-30
2022/11/01 20:20:31;;;;;;;;;;;19.80;90.20;;;;;;10506113;28;20129;-30
2022/11/01 20:25:33;;;;;;;8.90;2.30;;;19.50;84.80;;;;;;10503256;28;20292;-29
2022/11/01 20:30:35;;;;;;;8.30;2.38;;;18.80;92.20;;;;;;10505139;28;20793;-30
2022/11/01 20:35:39;;;;;;;6.63;1.50;;;17.70;93.30;;;;;;10505495;28;20064;-29
2022/11/01 20:40:41;;;;;;;11.77;2.03;;;17.30;96.00;;;;;;10505654;28;20036;-29
2022/11/01 20:45:42;;;;;;;6.03;1.77;;;17.10;95.50;;;;;;10508542;28;20044;-29
2022/11/01 20:50:46;;;;;;;8.57;1.30;;;15.80;97.20;;;;;;10508656;28;20040;-30
2022/11/01 20:55:47;;;;;;;10.38;1.77;;;15.60;96.90;;;;;;10504351;28;20048;-33
2022/11/01 21:00:50;;;;;;;7.57;0.90;;;15.00;99.90;;;;;;10486885;28;20072;-31
2022/11/01 21:05:54;;;;;;;9.85;1.33;;;16.00;98.90;;;;;;10480443;28;20057;-34
2022/11/01 21:10:58;;;;;;;6.43;1.20;;;15.10;98.70;;;;;;10482123;28;20563;-31
2022/11/01 21:16:01;;;;;;;6.95;1.08;;;16.20;96.20;;;;;;10481424;28;20044;-30
2022/11/01 21:21:33;;;;;;;6.63;1.40;;;17.10;97.00;;;;;;10488647;28;20712;-29
2022/11/01 21:26:38;;;;;;;6.67;1.10;;;16.90;94.10;;;;;;10488763;28;20887;-29
2022/11/01 21:31:41;;;;;;;5.97;1.13;;;15.90;99.40;;;;;;10494585;28;20486;-31
2022/11/01 21:36:46;;;;;;;8.82;1.25;;;16.00;95.10;;;;;;10489199;28;20037;-31
2022/11/01 21:41:50;;;;;;;10.45;1.48;;;16.60;98.00;;;;;;10485844;28;20190;-32
2022/11/01 21:46:54;;;;;;;3.33;0.77;;;15.90;99.90;;;;;;10489509;28;20088;-32
2022/11/01 21:51:59;;;;;;;6.65;1.30;;;16.10;99.60;;;;;;10502791;28;20070;-27
2022/11/01 21:57:01;;;;;;;4.80;1.42;;;15.10;99.90;;;;;;10478103;28;20408;-29
2022/11/01 22:02:05;;;;;;;3.00;1.58;;;15.40;99.90;;;;;;10473743;28;20106;-29
2022/11/01 22:07:09;;;;;;;9.60;1.75;;;16.00;99.90;;;;;;10490109;28;20075;-29
2022/11/01 22:12:11;;;;;;;8.63;1.75;;;14.80;99.90;;;;;;10482241;28;20068;-29
2022/11/01 22:17:13;;;;;;;5.50;1.17;;;14.70;99.90;;;;;;10488602;28;20057;-29
2022/11/01 22:22:16;;;;;;;8.27;1.33;;;15.40;99.90;;;;;;10485998;28;20114;-30
2022/11/01 22:27:18;;;;;;;3.45;1.27;;;15.30;99.90;;;;;;10487442;28;20048;-31
2022/11/01 22:32:20;;;;;;;4.38;0.80;;;15.70;99.90;;;;;;10497449;28;20169;-30
2022/11/01 22:37:24;;;;;;;5.60;1.20;;;15.70;99.40;;;;;;10489876;28;20440;-30
2022/11/01 22:42:26;;;;;;;7.00;1.23;;;16.20;98.40;;;;;;10476344;28;20090;-31
2022/11/01 22:47:29;;;;;;;9.07;1.08;;;15.10;99.90;;;;;;10462259;28;20475;-32
2022/11/01 22:52:37;;;;;;;11.32;1.08;;;14.90;99.90;;;;;;10479736;28;20037;-30
2022/11/01 22:57:44;;;;;;;2.50;0.68;;;15.60;99.90;;;;;;10493888;28;20045;-29
2022/11/01 23:02:46;;;;;;;8.55;1.15;;;16.90;96.90;;;;;;10480683;28;20469;-30
2022/11/01 23:07:50;;;;;;;3.63;0.90;;;16.10;99.30;;;;;;10485004;28;20481;-30
2022/11/01 23:18:21;;;;;;;2.55;1.10;;;16.00;99.90;;;;;;10479306;28;20132;-30
2022/11/01 23:23:24;;;;;;;7.20;1.00;;;15.60;99.10;;;;;;10483638;28;20131;-30
2022/11/01 23:28:27;;;;;;;4.05;0.80;;;16.20;99.10;;;;;;10485559;28;20452;-29
2022/11/01 23:33:35;;;;;;;2.67;0.98;;;17.60;92.30;;;;;;10475690;28;20052;-35
2022/11/01 23:38:40;;;;;;;4.47;0.77;;;16.50;98.30;;;;;;10473496;28;20763;-33
2022/11/01 23:43:42;;;;;;;5.60;1.30;;;18.10;93.40;;;;;;10463097;28;20133;-30
2022/11/01 23:48:44;;;;;;;8.10;1.67;;;17.00;95.80;;;;;;10485513;28;20056;-28
2022/11/01 23:53:51;;;;;;;10.00;1.50;;;12.70;99.90;;;;;;10481105;28;20048;-29
2022/11/01 23:58:55;;;;;;;8.10;1.10;;;11.90;99.90;;;;;;10482662;28;20102;-31
